createdAt,value
2017-09-13T00:01:45.638Z,3.13
2017-09-13T00:04:12.822Z,2.13
2017-09-13T00:06:40.067Z,1.80
2017-09-13T00:09:07.242Z,2.20
2017-09-13T00:11:33.646Z,2.00
2017-09-13T00:14:00.823Z,1.50
2017-09-13T00:16:27.258Z,1.70
2017-09-13T00:18:53.690Z,2.00
2017-09-13T00:21:20.147Z,1.93
2017-09-13T00:23:46.687Z,1.87
2017-09-13T00:26:13.183Z,1.87
2017-09-13T00:28:39.616Z,2.20
2017-09-13T00:31:06.042Z,2.00
2017-09-13T00:33:32.573Z,1.40
2017-09-13T00:35:59.011Z,1.77
2017-09-13T00:38:25.477Z,2.03
2017-09-13T00:40:51.916Z,2.20
2017-09-13T00:43:18.452Z,2.00
2017-09-13T00:45:44.927Z,2.10
2017-09-13T00:48:12.236Z,2.07
2017-09-13T00:50:38.683Z,1.80
2017-09-13T00:53:05.149Z,1.80
2017-09-13T00:55:32.395Z,1.87
2017-09-13T00:57:59.562Z,2.10
2017-09-13T01:00:25.984Z,1.97
2017-09-13T01:02:53.222Z,2.07
2017-09-13T01:05:20.398Z,1.77
2017-09-13T01:07:46.883Z,2.90
2017-09-13T01:10:13.294Z,2.13
2017-09-13T01:12:39.743Z,2.73
2017-09-13T01:15:06.162Z,1.80
2017-09-13T01:17:32.586Z,1.97
2017-09-13T01:19:59.014Z,1.97
2017-09-13T01:22:25.438Z,2.07
2017-09-13T01:24:51.869Z,2.00
2017-09-13T01:27:18.262Z,1.87
2017-09-13T01:29:44.734Z,1.90
2017-09-13T01:32:11.156Z,1.70
2017-09-13T01:34:37.563Z,1.70
2017-09-13T01:37:04.758Z,1.90
2017-09-13T01:39:31.216Z,2.00
2017-09-13T01:41:57.655Z,1.87
2017-09-13T01:44:24.098Z,1.97
2017-09-13T01:46:51.261Z,2.50
2017-09-13T01:49:18.446Z,1.90
2017-09-13T01:51:44.862Z,1.93
2017-09-13T01:54:11.331Z,2.60
2017-09-13T01:56:37.743Z,1.70
2017-09-13T01:59:04.210Z,1.90
2017-09-13T02:01:30.799Z,2.07
2017-09-13T02:03:57.227Z,1.70
2017-09-13T02:06:24.405Z,1.50
2017-09-13T02:08:50.828Z,2.10
2017-09-13T02:11:17.296Z,2.23
2017-09-13T02:13:43.702Z,2.13
2017-09-13T02:16:10.107Z,3.17
2017-09-13T02:18:37.287Z,2.43
2017-09-13T02:21:03.712Z,2.03
2017-09-13T02:23:30.182Z,1.90
2017-09-13T02:25:56.646Z,2.33
2017-09-13T02:28:23.820Z,1.87
2017-09-13T02:30:50.257Z,1.77
2017-09-13T02:33:16.743Z,2.30
2017-09-13T02:35:43.230Z,2.20
2017-09-13T02:38:09.647Z,2.10
2017-09-13T02:40:36.095Z,1.90
2017-09-13T02:43:02.528Z,2.27
2017-09-13T02:45:28.972Z,1.63
2017-09-13T02:47:55.454Z,2.03
2017-09-13T02:50:22.646Z,2.13
2017-09-13T02:52:49.223Z,1.60
2017-09-13T02:55:15.675Z,1.70
2017-09-13T02:57:42.835Z,1.90
2017-09-13T03:00:09.299Z,1.80
2017-09-13T03:02:35.747Z,2.07
2017-09-13T03:05:02.194Z,2.00
2017-09-13T03:07:28.667Z,1.93
2017-09-13T03:09:55.819Z,1.80
2017-09-13T03:12:22.990Z,1.83
2017-09-13T03:14:49.460Z,2.10
2017-09-13T03:17:15.875Z,2.10
2017-09-13T03:19:42.324Z,1.50
2017-09-13T03:22:08.722Z,1.90
2017-09-13T03:24:35.168Z,2.73
2017-09-13T03:27:01.615Z,1.93
2017-09-13T03:29:28.035Z,1.40
2017-09-13T03:31:54.494Z,2.03
2017-09-13T03:34:20.910Z,1.70
2017-09-13T03:36:47.341Z,1.90
2017-09-13T03:39:13.774Z,1.30
2017-09-13T03:41:40.179Z,1.67
2017-09-13T03:44:06.688Z,1.93
2017-09-13T03:46:33.864Z,2.20
2017-09-13T03:49:00.302Z,1.47
2017-09-13T03:51:26.920Z,2.00
2017-09-13T03:53:53.410Z,1.97
2017-09-13T03:56:19.827Z,1.87
2017-09-13T03:58:46.354Z,1.27
2017-09-13T04:01:12.871Z,2.10
2017-09-13T04:03:39.300Z,2.53
2017-09-13T04:06:05.747Z,1.40
2017-09-13T04:08:32.161Z,2.17
2017-09-13T04:10:58.592Z,1.70
2017-09-13T04:13:25.008Z,2.33
2017-09-13T04:15:52.199Z,1.90
2017-09-13T04:18:18.666Z,1.80
2017-09-13T04:20:45.172Z,2.10
2017-09-13T04:23:11.627Z,1.90
2017-09-13T04:25:38.046Z,2.13
2017-09-13T04:28:04.551Z,1.73
2017-09-13T04:30:30.979Z,1.40
2017-09-13T04:32:57.382Z,1.20
2017-09-13T04:35:24.586Z,2.10
2017-09-13T04:37:51.029Z,2.03
2017-09-13T04:40:17.498Z,2.13
2017-09-13T04:42:44.703Z,1.50
2017-09-13T04:45:11.196Z,1.83
2017-09-13T04:47:37.611Z,1.97
2017-09-13T04:50:04.815Z,2.03
2017-09-13T04:52:31.285Z,2.23
2017-09-13T04:54:57.747Z,2.30
2017-09-13T04:57:24.258Z,2.30
2017-09-13T04:59:50.715Z,1.60
2017-09-13T05:02:17.162Z,1.80
2017-09-13T05:04:43.594Z,2.13
2017-09-13T05:07:09.978Z,1.77
2017-09-13T05:09:36.460Z,1.93
2017-09-13T05:12:02.885Z,2.10
2017-09-13T05:14:29.255Z,1.77
2017-09-13T05:16:55.643Z,1.50
2017-09-13T05:19:22.115Z,1.67
2017-09-13T05:21:48.527Z,2.20
2017-09-13T05:24:14.948Z,1.30
2017-09-13T05:26:41.335Z,2.40
2017-09-13T05:29:07.750Z,1.93
2017-09-13T05:31:34.155Z,1.43
2017-09-13T05:34:00.647Z,1.90
2017-09-13T05:36:27.783Z,1.40
2017-09-13T05:38:54.242Z,2.00
2017-09-13T05:41:21.399Z,1.80
2017-09-13T05:43:47.819Z,2.13
2017-09-13T05:46:15.018Z,1.53
2017-09-13T05:48:41.435Z,1.63
2017-09-13T05:51:07.906Z,1.70
2017-09-13T05:53:34.312Z,1.93
2017-09-13T05:56:00.700Z,1.90
2017-09-13T05:58:27.847Z,1.50
2017-09-13T06:00:54.985Z,1.63
2017-09-13T06:03:22.150Z,1.13
2017-09-13T06:05:49.271Z,1.70
2017-09-13T06:08:15.658Z,1.20
2017-09-13T06:10:42.062Z,1.80
2017-09-13T06:13:09.185Z,1.43
2017-09-13T06:15:37.079Z,1.60
2017-09-13T06:18:04.196Z,1.60
2017-09-13T06:20:30.610Z,1.93
2017-09-13T06:22:57.012Z,1.50
2017-09-13T06:25:23.403Z,1.50
2017-09-13T06:27:50.572Z,1.67
2017-09-13T06:30:17.694Z,1.60
2017-09-13T06:32:44.128Z,1.93
2017-09-13T06:35:10.647Z,2.17
2017-09-13T06:37:37.087Z,1.80
2017-09-13T06:40:03.519Z,1.20
2017-09-13T06:42:29.910Z,1.40
2017-09-13T06:44:56.308Z,1.53
2017-09-13T06:47:23.460Z,1.17
2017-09-13T06:49:50.618Z,1.60
2017-09-13T06:52:17.031Z,1.57
2017-09-13T06:54:44.176Z,1.83
2017-09-13T06:57:10.571Z,1.70
2017-09-13T06:59:36.950Z,1.47
2017-09-13T07:02:04.095Z,1.40
2017-09-13T07:04:31.251Z,1.70
2017-09-13T07:06:58.563Z,1.93
2017-09-13T07:09:25.071Z,1.40
2017-09-13T07:11:51.545Z,1.30
2017-09-13T07:14:17.931Z,1.43
2017-09-13T07:16:46.101Z,1.70
2017-09-13T07:19:12.481Z,1.63
2017-09-13T07:21:38.870Z,1.63
2017-09-13T07:24:05.276Z,1.47
2017-09-13T07:26:32.415Z,1.63
2017-09-13T07:28:59.589Z,3.30
2017-09-13T07:31:25.986Z,1.40
2017-09-13T07:33:52.504Z,1.80
2017-09-13T07:36:20.366Z,1.90
2017-09-13T07:38:46.748Z,2.40
2017-09-13T07:41:13.190Z,1.73
2017-09-13T07:43:39.632Z,1.50
2017-09-13T07:46:06.035Z,1.77
2017-09-13T07:48:33.176Z,1.63
2017-09-13T07:51:00.342Z,1.63
2017-09-13T07:53:26.920Z,2.23
2017-09-13T07:55:53.329Z,1.37
2017-09-13T07:58:19.798Z,1.17
2017-09-13T08:00:46.256Z,1.53
2017-09-13T08:03:13.482Z,1.80
2017-09-13T08:05:39.894Z,1.40
2017-09-13T08:08:06.451Z,1.23
2017-09-13T08:10:32.876Z,1.10
2017-09-13T08:12:59.279Z,1.07
2017-09-13T08:15:25.727Z,1.10
2017-09-13T08:17:52.106Z,0.70
2017-09-13T08:20:19.254Z,1.10
2017-09-13T08:22:46.544Z,1.80
2017-09-13T08:25:12.968Z,1.40
2017-09-13T08:27:39.380Z,1.40
2017-09-13T08:30:06.554Z,1.30
2017-09-13T08:32:33.047Z,1.00
2017-09-13T08:35:00.248Z,1.73
2017-09-13T08:37:26.832Z,1.30
2017-09-13T08:39:54.067Z,1.70
2017-09-13T08:42:20.523Z,1.20
2017-09-13T08:44:47.718Z,1.10
2017-09-13T08:47:14.167Z,0.80
2017-09-13T08:49:40.639Z,1.10
2017-09-13T08:52:07.095Z,1.23
2017-09-13T08:54:33.538Z,1.20
2017-09-13T08:57:00.118Z,0.80
2017-09-13T08:59:26.556Z,1.20
2017-09-13T09:01:53.071Z,1.03
2017-09-13T09:04:19.483Z,1.00
2017-09-13T09:06:45.919Z,1.10
2017-09-13T09:09:12.367Z,1.20
2017-09-13T09:11:38.820Z,1.03
2017-09-13T09:14:05.255Z,1.07
2017-09-13T09:16:32.468Z,1.33
2017-09-13T09:18:58.910Z,1.00
2017-09-13T09:21:25.352Z,1.13
2017-09-13T09:23:51.784Z,1.27
2017-09-13T09:26:18.215Z,1.37
2017-09-13T09:28:44.687Z,0.80
2017-09-13T09:31:11.868Z,0.97
2017-09-13T09:33:38.454Z,0.97
2017-09-13T09:36:04.954Z,1.00
2017-09-13T09:38:31.376Z,1.03
2017-09-13T09:40:57.866Z,1.07
2017-09-13T09:43:24.358Z,1.13
2017-09-13T09:45:50.827Z,1.20
2017-09-13T09:48:19.051Z,0.90
2017-09-13T09:50:45.503Z,1.00
2017-09-13T09:53:11.920Z,0.80
2017-09-13T09:55:38.366Z,1.40
2017-09-13T09:58:04.896Z,0.87
2017-09-13T10:00:31.363Z,1.03
2017-09-13T10:02:57.807Z,1.00
2017-09-13T10:05:24.291Z,1.00
2017-09-13T10:07:51.459Z,0.80
2017-09-13T10:10:17.891Z,0.93
2017-09-13T10:12:44.350Z,0.90
2017-09-13T10:15:10.820Z,0.80
2017-09-13T10:17:37.233Z,1.23
2017-09-13T10:20:04.473Z,0.80
2017-09-13T10:22:30.919Z,0.70
2017-09-13T10:24:58.054Z,0.60
2017-09-13T10:27:24.583Z,0.90
2017-09-13T10:29:51.754Z,0.80
2017-09-13T10:32:18.942Z,0.90
2017-09-13T10:34:45.351Z,0.60
2017-09-13T10:37:11.802Z,0.97
2017-09-13T10:39:38.263Z,0.70
2017-09-13T10:42:04.667Z,0.60
2017-09-13T10:44:31.114Z,0.90
2017-09-13T10:46:57.522Z,0.70
2017-09-13T10:49:23.983Z,0.70
2017-09-13T10:51:50.495Z,0.90
2017-09-13T10:54:16.987Z,0.90
2017-09-13T10:56:44.895Z,0.67
2017-09-13T10:59:11.327Z,0.67
2017-09-13T11:01:37.728Z,0.87
2017-09-13T11:04:04.883Z,0.77
2017-09-13T11:06:32.208Z,0.90
2017-09-13T11:08:58.683Z,0.67
2017-09-13T11:11:25.278Z,0.93
2017-09-13T11:13:51.722Z,0.70
2017-09-13T11:16:18.154Z,0.80
2017-09-13T11:18:44.672Z,0.50
2017-09-13T11:21:11.093Z,0.70
2017-09-13T11:23:37.552Z,0.50
2017-09-13T11:26:03.950Z,0.57
2017-09-13T11:28:30.369Z,0.80
2017-09-13T11:30:56.826Z,0.90
2017-09-13T11:33:23.267Z,0.80
2017-09-13T11:35:49.760Z,0.90
2017-09-13T11:38:16.194Z,1.00
2017-09-13T11:40:42.625Z,0.80
2017-09-13T11:43:09.102Z,1.20
2017-09-13T11:45:35.563Z,0.70
2017-09-13T11:48:02.700Z,1.00
2017-09-13T11:50:29.183Z,0.90
2017-09-13T11:52:55.602Z,0.80
2017-09-13T11:55:22.058Z,0.70
2017-09-13T11:57:48.500Z,0.90
2017-09-13T12:00:14.966Z,0.63
2017-09-13T12:02:41.436Z,0.60
2017-09-13T12:05:07.836Z,0.90
2017-09-13T12:07:34.463Z,1.10
2017-09-13T12:10:00.944Z,0.80
2017-09-13T12:12:27.413Z,0.67
2017-09-13T12:14:53.819Z,0.80
2017-09-13T12:17:20.235Z,0.80
2017-09-13T12:19:46.707Z,0.90
2017-09-13T12:22:13.161Z,0.90
2017-09-13T12:24:40.396Z,1.20
2017-09-13T12:27:06.901Z,0.93
2017-09-13T12:29:33.335Z,0.93
2017-09-13T12:31:59.772Z,0.70
2017-09-13T12:34:26.193Z,0.70
2017-09-13T12:36:52.707Z,0.70
2017-09-13T12:39:19.915Z,0.60
2017-09-13T12:41:46.403Z,0.77
2017-09-13T12:44:12.887Z,0.80
2017-09-13T12:46:39.376Z,0.57
2017-09-13T12:49:05.823Z,1.00
2017-09-13T12:51:32.240Z,0.80
2017-09-13T12:53:58.703Z,1.07
2017-09-13T12:56:25.127Z,0.50
2017-09-13T12:58:51.610Z,0.90
2017-09-13T13:01:18.836Z,1.53
2017-09-13T13:03:45.256Z,1.10
2017-09-13T13:06:11.715Z,0.80
2017-09-13T13:08:38.147Z,0.80
2017-09-13T13:11:04.608Z,0.90
2017-09-13T13:13:31.772Z,1.00
2017-09-13T13:15:58.187Z,0.70
2017-09-13T13:18:25.353Z,1.03
2017-09-13T13:20:51.770Z,0.70
2017-09-13T13:23:18.969Z,0.70
2017-09-13T13:25:45.376Z,0.77
2017-09-13T13:28:11.851Z,0.53
2017-09-13T13:30:39.039Z,1.00
2017-09-13T13:33:05.443Z,0.90
2017-09-13T13:35:31.898Z,0.73
2017-09-13T13:37:59.068Z,0.63
2017-09-13T13:40:25.544Z,0.53
2017-09-13T13:42:51.974Z,0.70
2017-09-13T13:45:18.431Z,0.73
2017-09-13T13:47:45.611Z,0.83
2017-09-13T13:50:12.056Z,0.50
2017-09-13T13:52:38.547Z,0.70
2017-09-13T13:55:05.011Z,0.80
2017-09-13T13:57:31.418Z,0.70
2017-09-13T13:59:58.655Z,0.60
2017-09-13T14:02:25.918Z,1.10
2017-09-13T14:04:53.103Z,0.97
2017-09-13T14:07:19.534Z,0.97
2017-09-13T14:09:46.010Z,1.03
2017-09-13T14:12:12.428Z,0.70
2017-09-13T14:14:38.919Z,0.87
2017-09-13T14:17:05.368Z,1.10
2017-09-13T14:19:31.826Z,1.03
2017-09-13T14:21:58.354Z,0.80
2017-09-13T14:24:24.846Z,1.00
2017-09-13T14:26:52.055Z,1.10
2017-09-13T14:29:18.502Z,0.83
2017-09-13T14:31:45.675Z,1.50
2017-09-13T14:34:12.923Z,1.97
2017-09-13T14:36:40.079Z,1.00
2017-09-13T14:39:07.317Z,1.30
2017-09-13T14:41:34.510Z,1.10
2017-09-13T14:44:01.155Z,1.20
2017-09-13T14:46:27.576Z,0.67
2017-09-13T14:48:53.993Z,0.70
2017-09-13T14:51:20.594Z,0.93
2017-09-13T14:53:47.038Z,1.07
2017-09-13T14:56:14.254Z,0.80
2017-09-13T14:58:43.970Z,0.70
2017-09-13T15:01:10.492Z,0.60
2017-09-13T15:03:36.926Z,0.70
2017-09-13T15:06:03.354Z,0.93
2017-09-13T15:08:29.766Z,0.53
2017-09-13T15:10:56.204Z,0.83
2017-09-13T15:13:22.675Z,0.87
2017-09-13T15:15:49.091Z,0.83
2017-09-13T15:18:15.534Z,0.87
2017-09-13T15:20:41.997Z,1.00
2017-09-13T15:23:09.147Z,0.80
2017-09-13T15:25:36.491Z,0.83
2017-09-13T15:28:02.950Z,1.23
2017-09-13T15:30:29.376Z,1.27
2017-09-13T15:32:56.691Z,2.17
2017-09-13T15:35:23.247Z,0.90
2017-09-13T15:37:49.740Z,1.63
2017-09-13T15:40:16.427Z,2.40
2017-09-13T15:42:43.615Z,1.00
2017-09-13T15:45:10.042Z,1.47
2017-09-13T15:47:36.553Z,1.77
2017-09-13T15:50:03.762Z,0.50
2017-09-13T15:52:30.176Z,0.90
2017-09-13T15:54:56.624Z,1.57
2017-09-13T15:57:23.093Z,1.80
2017-09-13T15:59:50.499Z,1.10
2017-09-13T16:02:17.082Z,0.77
2017-09-13T16:04:43.543Z,0.80
2017-09-13T16:07:10.118Z,1.30
2017-09-13T16:09:36.563Z,0.80
2017-09-13T16:12:03.099Z,0.80
2017-09-13T16:14:29.537Z,1.90
2017-09-13T16:16:57.638Z,1.80
2017-09-13T16:19:24.890Z,1.83
2017-09-13T16:21:52.096Z,1.97
2017-09-13T16:24:18.627Z,1.87
2017-09-13T16:26:45.050Z,1.40
2017-09-13T16:29:11.556Z,1.20
2017-09-13T16:31:38.032Z,1.60
2017-09-13T16:34:04.591Z,0.87
2017-09-13T16:36:31.052Z,1.23
2017-09-13T16:38:57.498Z,1.33
2017-09-13T16:41:23.978Z,1.00
2017-09-13T16:43:50.428Z,1.10
2017-09-13T16:46:16.929Z,0.90
2017-09-13T16:48:43.359Z,0.83
2017-09-13T16:51:09.778Z,0.87
2017-09-13T16:53:36.319Z,0.90
2017-09-13T16:56:03.304Z,1.10
2017-09-13T16:58:30.873Z,0.90
2017-09-13T17:00:58.151Z,0.80
2017-09-13T17:03:24.975Z,0.60
2017-09-13T17:05:59.183Z,0.70
2017-09-13T17:08:26.307Z,0.90
2017-09-13T17:10:52.770Z,0.93
2017-09-13T17:13:19.899Z,0.80
2017-09-13T17:15:46.340Z,1.00
2017-09-13T17:18:12.780Z,2.20
2017-09-13T17:20:39.934Z,2.13
2017-09-13T17:23:07.155Z,0.80
2017-09-13T17:25:33.518Z,0.70
2017-09-13T17:28:00.853Z,1.10
2017-09-13T17:30:27.253Z,1.00
2017-09-13T17:32:53.698Z,0.90
2017-09-13T17:35:20.137Z,0.90
2017-09-13T17:37:46.526Z,0.93
2017-09-13T17:40:13.113Z,1.20
2017-09-13T17:42:39.564Z,1.47
2017-09-13T17:45:07.123Z,2.20
2017-09-13T17:47:34.350Z,1.13
2017-09-13T17:50:02.395Z,1.40
2017-09-13T17:52:28.787Z,1.50
2017-09-13T17:54:55.203Z,1.40
2017-09-13T17:57:22.354Z,1.63
2017-09-13T17:59:49.508Z,1.67
2017-09-13T18:02:16.950Z,1.53
2017-09-13T18:04:51.624Z,1.87
2017-09-13T18:07:18.341Z,1.13
2017-09-13T18:09:44.830Z,2.00
2017-09-13T18:12:11.237Z,2.33
2017-09-13T18:14:37.690Z,2.37
2017-09-13T18:17:04.146Z,2.17
2017-09-13T18:19:30.746Z,2.60
2017-09-13T18:21:57.130Z,2.00
2017-09-13T18:24:24.439Z,1.80
2017-09-13T18:26:50.908Z,2.10
2017-09-13T18:29:18.134Z,2.07
2017-09-13T18:31:45.347Z,21.50
2017-09-13T18:34:11.740Z,4.03
2017-09-13T18:36:39.028Z,2.97
2017-09-13T18:39:05.456Z,2.10
2017-09-13T18:41:31.937Z,2.20
2017-09-13T18:43:58.434Z,2.40
2017-09-13T18:46:24.883Z,2.60
2017-09-13T18:48:51.341Z,2.40
2017-09-13T18:51:18.518Z,2.40
2017-09-13T18:53:45.737Z,2.43
2017-09-13T18:56:14.334Z,2.03
2017-09-13T18:58:40.746Z,3.20
2017-09-13T19:01:07.284Z,3.23
2017-09-13T19:03:33.877Z,2.53
2017-09-13T19:06:00.442Z,2.20
2017-09-13T19:08:26.865Z,2.80
2017-09-13T19:10:53.282Z,2.77
2017-09-13T19:13:19.801Z,2.77
2017-09-13T19:15:46.216Z,3.10
2017-09-13T19:18:13.471Z,3.50
2017-09-13T19:20:40.780Z,4.20
2017-09-13T19:23:07.280Z,4.80
2017-09-13T19:25:33.766Z,4.73
2017-09-13T19:28:00.344Z,2.93
2017-09-13T19:30:27.344Z,2.40
2017-09-13T19:32:53.777Z,2.23
2017-09-13T19:35:20.267Z,1.67
2017-09-13T19:37:46.856Z,2.93
2017-09-13T19:40:14.104Z,2.50
2017-09-13T19:42:40.653Z,2.30
2017-09-13T19:45:07.914Z,1.90
2017-09-13T19:47:35.135Z,3.27
2017-09-13T19:50:01.675Z,7.07
2017-09-13T19:52:28.172Z,2.03
2017-09-13T19:54:54.725Z,1.77
2017-09-13T19:57:21.211Z,1.70
2017-09-13T19:59:48.720Z,2.03
2017-09-13T20:02:15.295Z,2.07
2017-09-13T20:04:42.520Z,2.53
2017-09-13T20:07:09.061Z,2.47
2017-09-13T20:09:36.304Z,2.40
2017-09-13T20:12:02.819Z,4.37
2017-09-13T20:14:29.298Z,7.20
2017-09-13T20:16:56.551Z,8.40
2017-09-13T20:19:23.839Z,9.07
2017-09-13T20:21:50.383Z,9.73
2017-09-13T20:24:16.971Z,10.37
2017-09-13T20:26:44.207Z,11.00
2017-09-13T20:29:11.427Z,10.90
2017-09-13T20:31:37.910Z,9.80
2017-09-13T20:34:05.110Z,9.07
2017-09-13T20:36:31.617Z,8.77
2017-09-13T20:38:58.106Z,3.47
2017-09-13T20:41:24.620Z,3.20
2017-09-13T20:43:51.108Z,2.20
2017-09-13T20:46:18.312Z,1.73
2017-09-13T20:48:45.004Z,2.10
2017-09-13T20:51:12.202Z,2.30
2017-09-13T20:53:38.667Z,1.50
2017-09-13T20:56:05.857Z,1.07
2017-09-13T20:58:32.381Z,0.90
2017-09-13T21:00:58.946Z,0.90
2017-09-13T21:03:25.386Z,0.90
2017-09-13T21:05:51.824Z,0.70
2017-09-13T21:08:18.324Z,0.70
2017-09-13T21:10:44.759Z,0.90
2017-09-13T21:13:11.237Z,1.10
2017-09-13T21:15:37.666Z,0.90
2017-09-13T21:18:05.588Z,0.70
2017-09-13T21:20:32.062Z,0.60
2017-09-13T21:22:58.495Z,0.90
2017-09-13T21:25:24.952Z,0.73
2017-09-13T21:27:52.155Z,0.90
2017-09-13T21:30:18.611Z,0.80
2017-09-13T21:32:45.104Z,0.70
2017-09-13T21:35:11.514Z,0.80
2017-09-13T21:37:38.760Z,0.73
2017-09-13T21:40:05.991Z,0.70
2017-09-13T21:42:32.628Z,0.47
2017-09-13T21:44:59.851Z,0.50
2017-09-13T21:47:26.351Z,0.60
2017-09-13T21:49:52.849Z,0.70
2017-09-13T21:52:19.294Z,0.50
2017-09-13T21:54:46.504Z,0.63
2017-09-13T21:57:12.972Z,0.80
2017-09-13T21:59:39.415Z,0.60
2017-09-13T22:02:06.648Z,0.50
2017-09-13T22:04:34.575Z,0.60
2017-09-13T22:07:01.021Z,0.70
2017-09-13T22:09:27.439Z,0.83
2017-09-13T22:11:53.907Z,0.70
2017-09-13T22:14:20.316Z,0.60
2017-09-13T22:16:46.726Z,0.60
2017-09-13T22:19:13.183Z,0.77
2017-09-13T22:21:39.629Z,0.57
2017-09-13T22:24:06.109Z,0.70
2017-09-13T22:26:32.650Z,0.50
2017-09-13T22:28:59.117Z,0.70
2017-09-13T22:31:25.539Z,0.90
2017-09-13T22:33:51.978Z,0.50
2017-09-13T22:36:18.466Z,0.60
2017-09-13T22:38:45.654Z,0.87
2017-09-13T22:41:12.195Z,0.60
2017-09-13T22:43:38.770Z,0.90
2017-09-13T22:46:05.184Z,0.50
2017-09-13T22:48:31.645Z,0.50
2017-09-13T22:50:59.000Z,0.73
2017-09-13T22:53:26.184Z,0.60
2017-09-13T22:55:52.883Z,0.50
2017-09-13T22:58:19.295Z,0.50
2017-09-13T23:00:45.763Z,0.60
2017-09-13T23:03:12.921Z,0.47
2017-09-13T23:05:40.231Z,0.63
2017-09-13T23:08:06.700Z,0.60
2017-09-13T23:10:33.958Z,0.60
2017-09-13T23:13:01.166Z,0.67
2017-09-13T23:15:27.587Z,0.50
2017-09-13T23:17:54.068Z,0.70
2017-09-13T23:20:21.232Z,0.80
2017-09-13T23:22:47.643Z,0.60
2017-09-13T23:25:14.848Z,0.50
2017-09-13T23:27:41.326Z,0.57
2017-09-13T23:30:08.610Z,0.60
2017-09-13T23:32:35.047Z,0.80
2017-09-13T23:35:01.535Z,0.63
2017-09-13T23:37:27.950Z,0.90
2017-09-13T23:39:54.600Z,0.70
2017-09-13T23:42:21.065Z,0.50
2017-09-13T23:44:48.232Z,1.30
2017-09-13T23:47:14.663Z,0.60
2017-09-13T23:49:41.112Z,0.60
2017-09-13T23:52:07.559Z,1.27
2017-09-13T23:54:34.307Z,0.60
2017-09-13T23:57:00.763Z,1.00
2017-09-13T23:59:27.184Z,0.60
